sensor_id;sensor_type;location;lat;lon;timestamp;pressure;altitude;pressure_sealevel;temperature;humidity
9335;BME280;4706;41.844;26.082;2022-12-29T00:01:52;102040.69;;;7.99;92.61
9335;BME280;4706;41.844;26.082;2022-12-29T00:04:17;102017.81;;;7.76;92.29
9335;BME280;4706;41.844;26.082;2022-12-29T00:06:43;102028.88;;;7.82;92.79
9335;BME280;4706;41.844;26.082;2022-12-29T00:09:12;102044.97;;;7.78;92.73
9335;BME280;4706;41.844;26.082;2022-12-29T00:11:39;102040.47;;;7.72;93.32
9335;BME280;4706;41.844;26.082;2022-12-29T00:14:04;102048.03;;;7.82;92.71
9335;BME280;4706;41.844;26.082;2022-12-29T00:16:48;102050.88;;;7.87;92.32
9335;BME280;4706;41.844;26.082;2022-12-29T00:19:14;102049.94;;;7.81;92.23
9335;BME280;4706;41.844;26.082;2022-12-29T00:21:58;102043.25;;;7.89;91.92
9335;BME280;4706;41.844;26.082;2022-12-29T00:24:44;102053.22;;;7.95;91.75
9335;BME280;4706;41.844;26.082;2022-12-29T00:27:29;102059.28;;;7.97;91.68
9335;BME280;4706;41.844;26.082;2022-12-29T00:30:16;102061.03;;;7.86;91.69
9335;BME280;4706;41.844;26.082;2022-12-29T00:33:00;102055.81;;;7.73;91.54
9335;BME280;4706;41.844;26.082;2022-12-29T00:35:53;102056.56;;;7.68;91.11
9335;BME280;4706;41.844;26.082;2022-12-29T00:38:20;102050.00;;;7.69;90.79
9335;BME280;4706;41.844;26.082;2022-12-29T00:41:05;102048.84;;;7.65;89.94
9335;BME280;4706;41.844;26.082;2022-12-29T00:43:49;102039.41;;;7.73;88.65
9335;BME280;4706;41.844;26.082;2022-12-29T00:46:36;102050.97;;;7.63;88.67
9335;BME280;4706;41.844;26.082;2022-12-29T00:49:03;102041.59;;;7.30;89.95
9335;BME280;4706;41.844;26.082;2022-12-29T00:51:47;102046.84;;;7.20;90.92
9335;BME280;4706;41.844;26.082;2022-12-29T00:54:14;102037.84;;;7.08;91.14
9335;BME280;4706;41.844;26.082;2022-12-29T00:56:40;102053.88;;;7.16;91.31
9335;BME280;4706;41.844;26.082;2022-12-29T00:59:10;102058.41;;;7.11;90.97
9335;BME280;4706;41.844;26.082;2022-12-29T01:01:37;102050.53;;;7.14;91.02
9335;BME280;4706;41.844;26.082;2022-12-29T01:04:03;102040.34;;;7.10;90.24
9335;BME280;4706;41.844;26.082;2022-12-29T01:06:28;102051.72;;;7.18;90.13
9335;BME280;4706;41.844;26.082;2022-12-29T01:08:54;102043.88;;;7.22;88.92
9335;BME280;4706;41.844;26.082;2022-12-29T01:11:39;102044.59;;;7.17;88.94
9335;BME280;4706;41.844;26.082;2022-12-29T01:14:05;102044.16;;;7.09;88.11
9335;BME280;4706;41.844;26.082;2022-12-29T01:16:31;102034.53;;;6.94;87.37
9335;BME280;4706;41.844;26.082;2022-12-29T01:18:56;102040.09;;;7.11;85.29
9335;BME280;4706;41.844;26.082;2022-12-29T01:21:22;102041.44;;;6.97;85.52
9335;BME280;4706;41.844;26.082;2022-12-29T01:23:47;102038.47;;;6.87;85.99
9335;BME280;4706;41.844;26.082;2022-12-29T01:26:14;102033.72;;;6.82;86.28
9335;BME280;4706;41.844;26.082;2022-12-29T01:28:41;102028.63;;;6.74;86.68
9335;BME280;4706;41.844;26.082;2022-12-29T01:31:10;102026.09;;;6.84;85.61
9335;BME280;4706;41.844;26.082;2022-12-29T01:33:36;102024.09;;;6.79;86.09
9335;BME280;4706;41.844;26.082;2022-12-29T01:36:07;102019.38;;;6.63;86.43
9335;BME280;4706;41.844;26.082;2022-12-29T01:38:34;102024.84;;;6.63;86.92
9335;BME280;4706;41.844;26.082;2022-12-29T01:41:00;102023.75;;;6.64;87.20
9335;BME280;4706;41.844;26.082;2022-12-29T01:43:42;102023.41;;;6.61;87.21
9335;BME280;4706;41.844;26.082;2022-12-29T01:51:52;102009.72;;;6.61;87.62
9335;BME280;4706;41.844;26.082;2022-12-29T01:56:51;102012.59;;;6.77;87.03
9335;BME280;4706;41.844;26.082;2022-12-29T01:59:22;101987.34;;;6.75;86.99
9335;BME280;4706;41.844;26.082;2022-12-29T02:01:48;102006.59;;;6.80;87.24
9335;BME280;4706;41.844;26.082;2022-12-29T02:04:14;101996.72;;;6.91;86.24
9335;BME280;4706;41.844;26.082;2022-12-29T02:07:02;102000.16;;;6.98;85.86
9335;BME280;4706;41.844;26.082;2022-12-29T02:09:29;101992.94;;;6.92;85.70
9335;BME280;4706;41.844;26.082;2022-12-29T02:11:56;102000.63;;;6.95;85.79
9335;BME280;4706;41.844;26.082;2022-12-29T02:14:23;101994.97;;;6.85;85.86
9335;BME280;4706;41.844;26.082;2022-12-29T02:25:36;101999.59;;;6.85;85.45
9335;BME280;4706;41.844;26.082;2022-12-29T02:31:30;102014.72;;;6.75;85.81
9335;BME280;4706;41.844;26.082;2022-12-29T02:34:33;102009.59;;;6.79;85.90
9335;BME280;4706;41.844;26.082;2022-12-29T02:42:24;102017.44;;;6.75;88.15
9335;BME280;4706;41.844;26.082;2022-12-29T02:47:26;102012.22;;;6.74;88.67
9335;BME280;4706;41.844;26.082;2022-12-29T02:50:15;102009.50;;;6.74;89.05
9335;BME280;4706;41.844;26.082;2022-12-29T02:52:50;102012.22;;;6.74;89.24
9335;BME280;4706;41.844;26.082;2022-12-29T02:55:17;102024.34;;;6.78;89.67
9335;BME280;4706;41.844;26.082;2022-12-29T02:57:42;102020.28;;;6.80;88.92
9335;BME280;4706;41.844;26.082;2022-12-29T03:00:14;102018.53;;;6.74;89.32
9335;BME280;4706;41.844;26.082;2022-12-29T03:03:17;102015.44;;;6.71;88.71
9335;BME280;4706;41.844;26.082;2022-12-29T03:08:43;102014.47;;;6.65;88.37
9335;BME280;4706;41.844;26.082;2022-12-29T03:11:13;102013.41;;;6.66;88.63
9335;BME280;4706;41.844;26.082;2022-12-29T03:14:32;102013.66;;;6.65;88.50
9335;BME280;4706;41.844;26.082;2022-12-29T03:17:26;102008.91;;;6.60;88.64
9335;BME280;4706;41.844;26.082;2022-12-29T03:20:04;102013.19;;;6.56;89.17
9335;BME280;4706;41.844;26.082;2022-12-29T03:22:35;102012.00;;;6.64;89.19
9335;BME280;4706;41.844;26.082;2022-12-29T03:25:09;102014.72;;;6.64;89.39
9335;BME280;4706;41.844;26.082;2022-12-29T03:27:42;101992.59;;;6.65;88.63
9335;BME280;4706;41.844;26.082;2022-12-29T03:30:09;101987.38;;;6.64;88.13
9335;BME280;4706;41.844;26.082;2022-12-29T03:32:41;102014.00;;;6.68;88.03
9335;BME280;4706;41.844;26.082;2022-12-29T03:35:11;102002.50;;;6.54;87.73
9335;BME280;4706;41.844;26.082;2022-12-29T03:37:44;102007.25;;;6.47;88.24
9335;BME280;4706;41.844;26.082;2022-12-29T03:40:14;102009.38;;;6.45;88.63
9335;BME280;4706;41.844;26.082;2022-12-29T03:42:40;102008.91;;;6.48;88.18
9335;BME280;4706;41.844;26.082;2022-12-29T03:45:07;102004.53;;;6.47;88.50
9335;BME280;4706;41.844;26.082;2022-12-29T03:47:33;102017.22;;;6.53;88.07
9335;BME280;4706;41.844;26.082;2022-12-29T03:49:58;102011.28;;;6.56;88.29
9335;BME280;4706;41.844;26.082;2022-12-29T03:52:24;102004.03;;;6.50;87.56
9335;BME280;4706;41.844;26.082;2022-12-29T03:54:50;102010.00;;;6.47;87.82
9335;BME280;4706;41.844;26.082;2022-12-29T03:57:15;102016.16;;;6.54;87.20
9335;BME280;4706;41.844;26.082;2022-12-29T03:59:41;102019.94;;;6.53;87.23
9335;BME280;4706;41.844;26.082;2022-12-29T04:02:06;102018.41;;;6.57;87.26
9335;BME280;4706;41.844;26.082;2022-12-29T04:04:32;102013.28;;;6.49;86.85
9335;BME280;4706;41.844;26.082;2022-12-29T04:06:57;102011.53;;;6.43;86.54
9335;BME280;4706;41.844;26.082;2022-12-29T04:09:23;102015.09;;;6.32;86.99
9335;BME280;4706;41.844;26.082;2022-12-29T04:11:48;102024.59;;;6.41;87.26
9335;BME280;4706;41.844;26.082;2022-12-29T04:14:14;102023.16;;;6.39;87.18
9335;BME280;4706;41.844;26.082;2022-12-29T04:16:39;102020.56;;;6.32;87.84
9335;BME280;4706;41.844;26.082;2022-12-29T04:19:06;102028.88;;;6.25;88.04
9335;BME280;4706;41.844;26.082;2022-12-29T04:21:32;102021.50;;;6.26;87.43
9335;BME280;4706;41.844;26.082;2022-12-29T04:23:58;102016.28;;;6.24;88.13
9335;BME280;4706;41.844;26.082;2022-12-29T04:26:23;102018.75;;;6.26;87.88
9335;BME280;4706;41.844;26.082;2022-12-29T04:28:49;102019.00;;;6.24;87.57
9335;BME280;4706;41.844;26.082;2022-12-29T04:31:14;102022.56;;;6.25;87.74
9335;BME280;4706;41.844;26.082;2022-12-29T04:33:40;102020.66;;;6.25;86.84
9335;BME280;4706;41.844;26.082;2022-12-29T04:36:05;102023.16;;;6.15;87.74
9335;BME280;4706;41.844;26.082;2022-12-29T04:38:31;102030.88;;;6.18;87.27
9335;BME280;4706;41.844;26.082;2022-12-29T04:40:59;102018.75;;;6.14;86.90
9335;BME280;4706;41.844;26.082;2022-12-29T04:43:25;102031.09;;;6.17;86.54
9335;BME280;4706;41.844;26.082;2022-12-29T04:45:50;102028.03;;;6.13;86.31
9335;BME280;4706;41.844;26.082;2022-12-29T04:48:16;102028.34;;;6.17;86.73
9335;BME280;4706;41.844;26.082;2022-12-29T04:50:42;102027.31;;;6.06;86.64
9335;BME280;4706;41.844;26.082;2022-12-29T04:53:07;102034.78;;;6.11;86.84
9335;BME280;4706;41.844;26.082;2022-12-29T04:55:33;102031.91;;;6.05;87.14
9335;BME280;4706;41.844;26.082;2022-12-29T04:57:58;102032.88;;;5.99;87.48
9335;BME280;4706;41.844;26.082;2022-12-29T05:00:24;102034.22;;;5.90;86.46
9335;BME280;4706;41.844;26.082;2022-12-29T05:02:50;102031.88;;;5.94;86.11
9335;BME280;4706;41.844;26.082;2022-12-29T05:05:16;102039.63;;;5.97;86.39
9335;BME280;4706;41.844;26.082;2022-12-29T05:07:41;102040.94;;;5.94;86.17
9335;BME280;4706;41.844;26.082;2022-12-29T05:10:07;102034.22;;;5.90;86.21
9335;BME280;4706;41.844;26.082;2022-12-29T05:12:35;102035.88;;;5.79;86.35
9335;BME280;4706;41.844;26.082;2022-12-29T05:15:01;102032.25;;;5.67;86.27
9335;BME280;4706;41.844;26.082;2022-12-29T05:20:39;102035.22;;;5.66;86.26
9335;BME280;4706;41.844;26.082;2022-12-29T05:23:05;102032.03;;;5.69;87.06
9335;BME280;4706;41.844;26.082;2022-12-29T05:25:31;102035.34;;;5.71;85.66
9335;BME280;4706;41.844;26.082;2022-12-29T05:27:56;102040.34;;;5.74;86.37
9335;BME280;4706;41.844;26.082;2022-12-29T05:30:22;102030.50;;;5.73;85.88
9335;BME280;4706;41.844;26.082;2022-12-29T05:32:48;102044.19;;;5.84;85.86
9335;BME280;4706;41.844;26.082;2022-12-29T05:35:14;102047.38;;;5.81;85.64
9335;BME280;4706;41.844;26.082;2022-12-29T05:37:40;102035.50;;;5.76;85.70
9335;BME280;4706;41.844;26.082;2022-12-29T05:40:06;102032.78;;;5.76;85.81
9335;BME280;4706;41.844;26.082;2022-12-29T05:42:31;102034.19;;;5.78;85.79
9335;BME280;4706;41.844;26.082;2022-12-29T05:44:57;102039.44;;;5.80;85.60
9335;BME280;4706;41.844;26.082;2022-12-29T05:47:23;102044.06;;;5.79;85.93
9335;BME280;4706;41.844;26.082;2022-12-29T05:49:48;102032.16;;;5.74;86.16
9335;BME280;4706;41.844;26.082;2022-12-29T05:52:44;102034.78;;;5.69;86.30
9335;BME280;4706;41.844;26.082;2022-12-29T05:55:10;102038.69;;;5.73;86.49
9335;BME280;4706;41.844;26.082;2022-12-29T05:57:36;102042.25;;;5.73;86.11
9335;BME280;4706;41.844;26.082;2022-12-29T06:00:03;102036.78;;;5.73;86.09
9335;BME280;4706;41.844;26.082;2022-12-29T06:02:29;102033.31;;;5.66;86.42
9335;BME280;4706;41.844;26.082;2022-12-29T06:04:55;102046.31;;;5.82;86.18
9335;BME280;4706;41.844;26.082;2022-12-29T06:07:21;102041.59;;;5.90;85.94
9335;BME280;4706;41.844;26.082;2022-12-29T06:09:46;102046.91;;;5.84;85.57
9335;BME280;4706;41.844;26.082;2022-12-29T06:12:12;102040.47;;;5.79;86.39
9335;BME280;4706;41.844;26.082;2022-12-29T06:14:37;102039.81;;;5.83;86.82
9335;BME280;4706;41.844;26.082;2022-12-29T06:17:03;102048.78;;;6.02;85.35
9335;BME280;4706;41.844;26.082;2022-12-29T06:19:29;102042.97;;;5.99;86.20
9335;BME280;4706;41.844;26.082;2022-12-29T06:21:54;102055.28;;;6.01;86.71
9335;BME280;4706;41.844;26.082;2022-12-29T06:24:20;102056.03;;;6.08;86.65
9335;BME280;4706;41.844;26.082;2022-12-29T06:26:46;102053.66;;;6.12;86.11
9335;BME280;4706;41.844;26.082;2022-12-29T06:29:11;102042.72;;;6.12;86.27
9335;BME280;4706;41.844;26.082;2022-12-29T06:31:38;102060.81;;;6.25;85.91
9335;BME280;4706;41.844;26.082;2022-12-29T06:34:04;102064.13;;;6.27;86.15
9335;BME280;4706;41.844;26.082;2022-12-29T06:36:29;102060.81;;;6.25;85.73
9335;BME280;4706;41.844;26.082;2022-12-29T06:38:54;102072.00;;;6.35;85.25
9335;BME280;4706;41.844;26.082;2022-12-29T06:41:20;102067.34;;;6.36;84.92
9335;BME280;4706;41.844;26.082;2022-12-29T06:43:46;102056.56;;;6.29;84.76
9335;BME280;4706;41.844;26.082;2022-12-29T06:46:11;102072.13;;;6.40;84.35
9335;BME280;4706;41.844;26.082;2022-12-29T06:48:37;102074.88;;;6.40;84.43
9335;BME280;4706;41.844;26.082;2022-12-29T06:51:02;102070.44;;;6.39;85.11
9335;BME280;4706;41.844;26.082;2022-12-29T06:53:28;102079.25;;;6.53;85.48
9335;BME280;4706;41.844;26.082;2022-12-29T06:55:53;102061.19;;;6.64;86.09
9335;BME280;4706;41.844;26.082;2022-12-29T06:58:19;102078.31;;;6.94;83.48
9335;BME280;4706;41.844;26.082;2022-12-29T07:00:44;102085.91;;;7.04;83.10
9335;BME280;4706;41.844;26.082;2022-12-29T07:03:10;102083.03;;;7.11;83.34
9335;BME280;4706;41.844;26.082;2022-12-29T07:05:36;102085.41;;;7.19;82.53
9335;BME280;4706;41.844;26.082;2022-12-29T07:08:01;102085.25;;;7.25;81.24
9335;BME280;4706;41.844;26.082;2022-12-29T07:10:26;102079.91;;;7.30;83.00
9335;BME280;4706;41.844;26.082;2022-12-29T07:12:52;102078.44;;;7.40;83.44
9335;BME280;4706;41.844;26.082;2022-12-29T07:15:17;102075.97;;;7.67;82.40
9335;BME280;4706;41.844;26.082;2022-12-29T07:17:43;102079.44;;;7.91;81.43
9335;BME280;4706;41.844;26.082;2022-12-29T07:20:09;102072.34;;;8.07;80.72
9335;BME280;4706;41.844;26.082;2022-12-29T07:22:35;102084.16;;;8.24;80.58
9335;BME280;4706;41.844;26.082;2022-12-29T07:25:00;102084.78;;;8.31;80.23
9335;BME280;4706;41.844;26.082;2022-12-29T07:27:26;102083.09;;;8.42;80.32
9335;BME280;4706;41.844;26.082;2022-12-29T07:29:51;102083.34;;;8.57;79.98
9335;BME280;4706;41.844;26.082;2022-12-29T07:32:17;102079.66;;;8.68;79.69
9335;BME280;4706;41.844;26.082;2022-12-29T07:34:42;102077.41;;;8.82;79.63
9335;BME280;4706;41.844;26.082;2022-12-29T07:37:10;102079.22;;;8.93;79.68
9335;BME280;4706;41.844;26.082;2022-12-29T07:39:37;102084.41;;;9.12;79.40
9335;BME280;4706;41.844;26.082;2022-12-29T07:42:02;102080.59;;;9.35;78.69
9335;BME280;4706;41.844;26.082;2022-12-29T07:44:28;102078.50;;;9.42;79.07
9335;BME280;4706;41.844;26.082;2022-12-29T07:46:53;102080.81;;;9.55;77.94
9335;BME280;4706;41.844;26.082;2022-12-29T07:49:19;102065.94;;;9.51;78.46
9335;BME280;4706;41.844;26.082;2022-12-29T07:51:44;102072.72;;;9.65;78.67
9335;BME280;4706;41.844;26.082;2022-12-29T07:54:10;102074.31;;;9.88;76.36
9335;BME280;4706;41.844;26.082;2022-12-29T07:56:37;102080.88;;;9.82;77.43
9335;BME280;4706;41.844;26.082;2022-12-29T07:59:02;102068.63;;;9.95;78.07
9335;BME280;4706;41.844;26.082;2022-12-29T08:01:28;102069.59;;;10.11;77.73
9335;BME280;4706;41.844;26.082;2022-12-29T08:03:53;102072.88;;;10.35;77.06
9335;BME280;4706;41.844;26.082;2022-12-29T08:06:18;102079.50;;;10.39;76.94
9335;BME280;4706;41.844;26.082;2022-12-29T08:08:45;102078.75;;;10.49;78.06
9335;BME280;4706;41.844;26.082;2022-12-29T08:11:10;102085.16;;;10.59;78.33
9335;BME280;4706;41.844;26.082;2022-12-29T08:13:36;102078.34;;;10.67;78.47
9335;BME280;4706;41.844;26.082;2022-12-29T08:16:01;102078.22;;;10.94;76.80
9335;BME280;4706;41.844;26.082;2022-12-29T08:18:27;102059.03;;;11.09;77.28
9335;BME280;4706;41.844;26.082;2022-12-29T08:20:52;102078.72;;;11.33;77.65
9335;BME280;4706;41.844;26.082;2022-12-29T08:23:18;102072.97;;;11.45;76.59
9335;BME280;4706;41.844;26.082;2022-12-29T08:25:43;102073.31;;;11.64;75.48
9335;BME280;4706;41.844;26.082;2022-12-29T08:28:09;102067.53;;;11.65;75.58
9335;BME280;4706;41.844;26.082;2022-12-29T08:30:35;102071.19;;;11.86;75.50
9335;BME280;4706;41.844;26.082;2022-12-29T08:33:01;102067.91;;;12.05;75.36
9335;BME280;4706;41.844;26.082;2022-12-29T08:35:26;102056.06;;;12.14;75.08
9335;BME280;4706;41.844;26.082;2022-12-29T08:37:52;102066.00;;;12.31;74.91
9335;BME280;4706;41.844;26.082;2022-12-29T08:40:19;102061.03;;;12.48;74.65
9335;BME280;4706;41.844;26.082;2022-12-29T08:42:46;102059.94;;;12.49;74.75
9335;BME280;4706;41.844;26.082;2022-12-29T08:45:12;102062.38;;;12.66;74.39
9335;BME280;4706;41.844;26.082;2022-12-29T08:47:38;102052.44;;;12.75;74.42
9335;BME280;4706;41.844;26.082;2022-12-29T08:50:04;102058.47;;;12.93;73.95
9335;BME280;4706;41.844;26.082;2022-12-29T08:52:29;102055.41;;;12.99;73.77
9335;BME280;4706;41.844;26.082;2022-12-29T08:54:55;102049.00;;;13.14;73.29
9335;BME280;4706;41.844;26.082;2022-12-29T08:57:20;102051.47;;;13.26;73.01
9335;BME280;4706;41.844;26.082;2022-12-29T08:59:46;102037.31;;;13.38;72.14
9335;BME280;4706;41.844;26.082;2022-12-29T09:02:11;102048.03;;;13.54;71.95
9335;BME280;4706;41.844;26.082;2022-12-29T09:04:37;102040.47;;;13.70;70.67
9335;BME280;4706;41.844;26.082;2022-12-29T09:07:03;102041.56;;;13.74;71.35
9335;BME280;4706;41.844;26.082;2022-12-29T09:09:29;102042.31;;;13.85;69.94
9335;BME280;4706;41.844;26.082;2022-12-29T09:11:55;102035.06;;;13.94;70.54
9335;BME280;4706;41.844;26.082;2022-12-29T09:14:20;102040.81;;;14.03;69.61
9335;BME280;4706;41.844;26.082;2022-12-29T09:16:46;102034.09;;;14.14;69.39
9335;BME280;4706;41.844;26.082;2022-12-29T09:19:30;102023.72;;;14.25;69.35
9335;BME280;4706;41.844;26.082;2022-12-29T09:21:56;102024.53;;;14.30;69.02
9335;BME280;4706;41.844;26.082;2022-12-29T09:24:21;102023.66;;;14.35;68.99
9335;BME280;4706;41.844;26.082;2022-12-29T09:26:47;102007.88;;;14.36;69.14
9335;BME280;4706;41.844;26.082;2022-12-29T09:29:12;102011.38;;;14.46;68.53
9335;BME280;4706;41.844;26.082;2022-12-29T09:31:38;102011.53;;;14.60;68.04
9335;BME280;4706;41.844;26.082;2022-12-29T09:34:03;101999.75;;;14.73;66.86
9335;BME280;4706;41.844;26.082;2022-12-29T09:36:28;102003.78;;;14.86;66.85
9335;BME280;4706;41.844;26.082;2022-12-29T09:38:54;101993.56;;;14.81;67.16
9335;BME280;4706;41.844;26.082;2022-12-29T09:46:38;101980.22;;;15.07;65.59
9335;BME280;4706;41.844;26.082;2022-12-29T09:51:43;101974.47;;;15.23;65.24
9335;BME280;4706;41.844;26.082;2022-12-29T09:54:46;101978.75;;;15.34;64.98
9335;BME280;4706;41.844;26.082;2022-12-29T09:57:22;101973.09;;;15.44;64.48
9335;BME280;4706;41.844;26.082;2022-12-29T09:59:51;101967.75;;;15.48;64.26
9335;BME280;4706;41.844;26.082;2022-12-29T10:02:38;101970.97;;;15.55;63.46
9335;BME280;4706;41.844;26.082;2022-12-29T10:05:30;101971.22;;;15.59;62.36
9335;BME280;4706;41.844;26.082;2022-12-29T10:24:28;101935.47;;;15.76;61.71
9335;BME280;4706;41.844;26.082;2022-12-29T10:26:57;101933.03;;;15.88;60.30
9335;BME280;4706;41.844;26.082;2022-12-29T10:29:32;101921.56;;;15.95;60.16
9335;BME280;4706;41.844;26.082;2022-12-29T10:32:10;101923.41;;;15.99;60.15
9335;BME280;4706;41.844;26.082;2022-12-29T10:34:45;101926.63;;;16.07;60.64
9335;BME280;4706;41.844;26.082;2022-12-29T10:37:37;101923.53;;;16.08;58.95
9335;BME280;4706;41.844;26.082;2022-12-29T10:42:50;101916.41;;;16.02;60.98
9335;BME280;4706;41.844;26.082;2022-12-29T10:45:18;101916.41;;;16.02;59.54
9335;BME280;4706;41.844;26.082;2022-12-29T10:48:05;101899.75;;;15.88;60.52
9335;BME280;4706;41.844;26.082;2022-12-29T10:50:33;101912.69;;;15.93;61.09
9335;BME280;4706;41.844;26.082;2022-12-29T10:53:01;101909.16;;;16.06;60.26
9335;BME280;4706;41.844;26.082;2022-12-29T10:55:32;101907.59;;;16.00;59.48
9335;BME280;4706;41.844;26.082;2022-12-29T10:58:01;101898.28;;;15.91;59.13
9335;BME280;4706;41.844;26.082;2022-12-29T11:00:30;101899.25;;;15.67;59.51
9335;BME280;4706;41.844;26.082;2022-12-29T11:08:11;101880.88;;;15.71;60.33
9335;BME280;4706;41.844;26.082;2022-12-29T11:10:40;101887.66;;;15.65;60.44
9335;BME280;4706;41.844;26.082;2022-12-29T11:13:16;101877.63;;;15.64;60.76
9335;BME280;4706;41.844;26.082;2022-12-29T11:15:47;101864.00;;;15.68;59.64
9335;BME280;4706;41.844;26.082;2022-12-29T11:18:32;101873.91;;;15.74;59.26
9335;BME280;4706;41.844;26.082;2022-12-29T11:21:04;101865.91;;;15.72;60.28
9335;BME280;4706;41.844;26.082;2022-12-29T11:23:41;101860.84;;;15.74;60.09
9335;BME280;4706;41.844;26.082;2022-12-29T11:28:32;101845.03;;;15.75;59.61
9335;BME280;4706;41.844;26.082;2022-12-29T11:31:00;101845.00;;;15.61;59.48
9335;BME280;4706;41.844;26.082;2022-12-29T11:33:30;101848.16;;;15.54;60.03
9335;BME280;4706;41.844;26.082;2022-12-29T11:36:22;101832.53;;;15.59;60.45
9335;BME280;4706;41.844;26.082;2022-12-29T11:38:51;101840.84;;;15.77;60.23
9335;BME280;4706;41.844;26.082;2022-12-29T11:41:26;101838.66;;;15.74;59.76
9335;BME280;4706;41.844;26.082;2022-12-29T11:43:55;101834.28;;;15.87;59.70
9335;BME280;4706;41.844;26.082;2022-12-29T11:46:28;101834.59;;;15.99;58.97
9335;BME280;4706;41.844;26.082;2022-12-29T11:48:56;101829.88;;;16.00;58.27
9335;BME280;4706;41.844;26.082;2022-12-29T11:51:47;101819.06;;;15.85;58.68
9335;BME280;4706;41.844;26.082;2022-12-29T11:54:38;101830.56;;;15.78;59.25
9335;BME280;4706;41.844;26.082;2022-12-29T11:57:12;101833.50;;;15.68;59.27
9335;BME280;4706;41.844;26.082;2022-12-29T11:59:53;101834.84;;;15.70;59.74
9335;BME280;4706;41.844;26.082;2022-12-29T12:02:22;101826.06;;;15.63;59.31
9335;BME280;4706;41.844;26.082;2022-12-29T12:04:53;101821.75;;;15.57;60.03
9335;BME280;4706;41.844;26.082;2022-12-29T12:07:27;101826.13;;;15.44;59.87
9335;BME280;4706;41.844;26.082;2022-12-29T12:09:58;101828.69;;;15.41;59.67
9335;BME280;4706;41.844;26.082;2022-12-29T12:14:58;101816.88;;;15.35;60.73
9335;BME280;4706;41.844;26.082;2022-12-29T12:17:33;101818.06;;;15.29;60.61
9335;BME280;4706;41.844;26.082;2022-12-29T12:20:38;101812.00;;;15.27;60.45
9335;BME280;4706;41.844;26.082;2022-12-29T12:25:56;101814.16;;;15.30;60.11
9335;BME280;4706;41.844;26.082;2022-12-29T12:33:48;101803.88;;;14.98;62.57
9335;BME280;4706;41.844;26.082;2022-12-29T12:39:11;101793.91;;;14.78;62.00
9335;BME280;4706;41.844;26.082;2022-12-29T12:50:24;101797.28;;;14.75;63.54
9335;BME280;4706;41.844;26.082;2022-12-29T13:04:02;101790.06;;;14.55;63.87
9335;BME280;4706;41.844;26.082;2022-12-29T13:06:43;101797.13;;;14.66;63.58
9335;BME280;4706;41.844;26.082;2022-12-29T13:12:10;101796.38;;;14.61;65.37
9335;BME280;4706;41.844;26.082;2022-12-29T13:20:10;101807.31;;;14.47;65.16
9335;BME280;4706;41.844;26.082;2022-12-29T13:28:03;101796.84;;;14.44;66.70
9335;BME280;4706;41.844;26.082;2022-12-29T13:30:45;101805.63;;;14.51;66.39
9335;BME280;4706;41.844;26.082;2022-12-29T13:33:30;101800.50;;;14.39;65.76
9335;BME280;4706;41.844;26.082;2022-12-29T13:36:33;101807.81;;;14.30;66.23
9335;BME280;4706;41.844;26.082;2022-12-29T13:39:33;101807.13;;;14.19;66.78
9335;BME280;4706;41.844;26.082;2022-12-29T13:42:01;101806.41;;;14.08;67.83
9335;BME280;4706;41.844;26.082;2022-12-29T13:44:42;101800.97;;;13.98;67.93
9335;BME280;4706;41.844;26.082;2022-12-29T13:47:28;101805.22;;;13.91;68.30
9335;BME280;4706;41.844;26.082;2022-12-29T13:49:56;101798.44;;;13.78;68.56
9335;BME280;4706;41.844;26.082;2022-12-29T13:57:48;101805.38;;;13.46;70.28
9335;BME280;4706;41.844;26.082;2022-12-29T14:00:18;101812.31;;;13.44;70.37
9335;BME280;4706;41.844;26.082;2022-12-29T14:07:49;101804.47;;;13.22;72.50
9335;BME280;4706;41.844;26.082;2022-12-29T14:10:36;101815.00;;;13.15;72.64
9335;BME280;4706;41.844;26.082;2022-12-29T14:15:43;101808.59;;;12.85;73.33
9335;BME280;4706;41.844;26.082;2022-12-29T14:18:21;101818.03;;;12.79;73.72
9335;BME280;4706;41.844;26.082;2022-12-29T14:20:52;101811.69;;;12.73;74.24
9335;BME280;4706;41.844;26.082;2022-12-29T14:23:47;101808.41;;;12.66;74.32
9335;BME280;4706;41.844;26.082;2022-12-29T14:28:43;101808.47;;;12.61;74.97
9335;BME280;4706;41.844;26.082;2022-12-29T14:33:41;101810.41;;;12.55;74.82
9335;BME280;4706;41.844;26.082;2022-12-29T14:36:34;101809.06;;;12.53;74.80
9335;BME280;4706;41.844;26.082;2022-12-29T14:39:00;101801.63;;;12.43;74.92
9335;BME280;4706;41.844;26.082;2022-12-29T14:41:38;101796.97;;;12.33;75.09
9335;BME280;4706;41.844;26.082;2022-12-29T14:47:05;101805.25;;;12.38;75.59
9335;BME280;4706;41.844;26.082;2022-12-29T14:49:40;101795.06;;;12.34;75.44
9335;BME280;4706;41.844;26.082;2022-12-29T14:52:14;101806.91;;;12.39;75.25
9335;BME280;4706;41.844;26.082;2022-12-29T14:54:48;101807.97;;;12.44;75.13
9335;BME280;4706;41.844;26.082;2022-12-29T14:57:41;101811.03;;;12.42;75.03
9335;BME280;4706;41.844;26.082;2022-12-29T15:02:45;101783.81;;;12.20;75.18
9335;BME280;4706;41.844;26.082;2022-12-29T15:08:13;101811.88;;;12.32;75.30
9335;BME280;4706;41.844;26.082;2022-12-29T15:10:46;101809.47;;;12.15;76.08
9335;BME280;4706;41.844;26.082;2022-12-29T15:13:16;101797.63;;;12.15;75.71
9335;BME280;4706;41.844;26.082;2022-12-29T15:15:43;101801.22;;;12.05;76.55
9335;BME280;4706;41.844;26.082;2022-12-29T15:18:29;101812.81;;;12.07;76.32
9335;BME280;4706;41.844;26.082;2022-12-29T15:21:03;101810.88;;;12.08;75.99
9335;BME280;4706;41.844;26.082;2022-12-29T15:23:31;101814.72;;;12.07;76.38
9335;BME280;4706;41.844;26.082;2022-12-29T15:26:04;101804.84;;;12.01;76.52
9335;BME280;4706;41.844;26.082;2022-12-29T15:28:51;101813.34;;;12.09;75.92
9335;BME280;4706;41.844;26.082;2022-12-29T15:31:25;101811.72;;;12.03;76.14
9335;BME280;4706;41.844;26.082;2022-12-29T15:33:53;101803.44;;;12.03;75.80
9335;BME280;4706;41.844;26.082;2022-12-29T15:36:22;101809.78;;;11.99;76.16
9335;BME280;4706;41.844;26.082;2022-12-29T15:38:48;101816.13;;;11.99;75.97
9335;BME280;4706;41.844;26.082;2022-12-29T15:44:17;101824.44;;;11.89;76.03
9335;BME280;4706;41.844;26.082;2022-12-29T15:46:46;101819.72;;;11.79;76.30
9335;BME280;4706;41.844;26.082;2022-12-29T15:49:13;101822.50;;;11.74;76.46